createdAt,value
2017-10-23T00:02:05.771Z,78.30
2017-10-23T00:12:15.541Z,78.10
2017-10-23T00:32:44.242Z,78.90
2017-10-23T00:53:15.324Z,78.50
2017-10-23T01:13:41.599Z,78.70
2017-10-23T01:23:51.928Z,78.40
2017-10-23T01:34:07.063Z,78.80
2017-10-23T01:54:36.324Z,78.50
2017-10-23T02:04:50.500Z,78.30
2017-10-23T02:09:53.887Z,78.60
2017-10-23T02:30:24.330Z,77.90
2017-10-23T03:01:05.325Z,78.30
2017-10-23T03:31:51.661Z,78.10
2017-10-23T04:34:04.858Z,78.00
2017-10-23T04:39:27.570Z,78.10
2017-10-23T06:13:36.758Z,78.00
2017-10-23T07:45:32.062Z,78.10
2017-10-23T07:50:34.640Z,78.20
2017-10-23T07:55:37.251Z,78.10
2017-10-23T08:00:39.835Z,78.00
2017-10-23T08:05:42.672Z,78.00
2017-10-23T08:10:45.241Z,78.20
2017-10-23T08:15:48.123Z,78.20
2017-10-23T08:20:50.736Z,78.10
2017-10-23T08:25:53.345Z,77.80
2017-10-23T08:36:33.878Z,77.70
2017-10-23T08:58:36.744Z,77.30
2017-10-23T09:03:39.383Z,77.20
2017-10-23T09:08:42.794Z,77.90
2017-10-23T09:13:45.453Z,77.80
2017-10-23T09:29:52.431Z,76.60
2017-10-23T09:34:55.048Z,76.40
2017-10-23T09:39:57.607Z,75.80
2017-10-23T09:45:05.965Z,75.90
2017-10-23T09:50:08.598Z,75.80
2017-10-23T09:55:11.237Z,75.40
2017-10-23T10:00:13.915Z,75.30
2017-10-23T10:05:16.561Z,75.50
2017-10-23T10:10:19.359Z,75.40
2017-10-23T10:15:22.002Z,75.80
2017-10-23T10:20:24.567Z,75.60
2017-10-23T10:25:27.159Z,75.70
2017-10-23T10:30:29.776Z,76.10
2017-10-23T10:35:32.364Z,76.10
2017-10-23T10:40:34.999Z,76.20
2017-10-23T10:45:37.666Z,76.00
2017-10-23T10:50:40.236Z,75.50
2017-10-23T10:55:42.860Z,75.60
2017-10-23T11:00:45.453Z,75.60
2017-10-23T11:05:48.132Z,75.90
2017-10-23T11:10:50.749Z,75.70
2017-10-23T11:15:53.376Z,75.40
2017-10-23T11:20:55.990Z,75.60
2017-10-23T11:25:58.657Z,75.20
2017-10-23T11:31:01.320Z,75.50
2017-10-23T11:36:03.999Z,74.70
2017-10-23T11:41:06.601Z,74.30
2017-10-23T11:46:10.812Z,74.40
2017-10-23T11:51:13.868Z,74.30
2017-10-23T14:32:52.611Z,72.20
2017-10-23T14:37:55.220Z,72.00
2017-10-23T14:42:57.871Z,72.40
2017-10-23T14:48:04.110Z,72.20
2017-10-23T14:53:07.074Z,72.20
2017-10-23T14:58:09.935Z,71.80
2017-10-23T15:13:33.085Z,72.10
2017-10-23T15:18:36.280Z,71.80
2017-10-23T15:23:39.619Z,71.60
2017-10-23T15:28:42.189Z,71.60
2017-10-23T15:33:46.432Z,71.80
2017-10-23T15:38:49.055Z,71.90
2017-10-23T15:43:51.673Z,71.90
2017-10-23T15:48:54.298Z,71.90
2017-10-23T15:53:57.145Z,71.90
2017-10-23T15:59:00.079Z,72.30
2017-10-23T16:04:04.466Z,72.30
2017-10-23T16:09:07.124Z,72.30
2017-10-23T16:14:09.695Z,72.20
2017-10-23T16:19:12.319Z,72.20
2017-10-23T16:24:14.978Z,72.30
2017-10-23T16:29:17.542Z,72.20
2017-10-23T16:34:20.145Z,72.10
2017-10-23T16:39:23.556Z,72.20
2017-10-23T16:44:26.164Z,72.10
2017-10-23T16:49:28.746Z,72.40
2017-10-23T16:54:31.354Z,72.50
2017-10-23T16:59:34.021Z,72.60
2017-10-23T17:04:36.616Z,72.90
2017-10-23T17:09:39.243Z,73.00
2017-10-23T17:14:41.798Z,73.10
2017-10-23T17:19:44.441Z,73.00
2017-10-23T17:24:47.031Z,73.10
2017-10-23T17:29:49.631Z,73.00
2017-10-23T17:34:52.242Z,73.10
2017-10-23T17:39:54.848Z,73.00
2017-10-23T17:44:57.540Z,73.10
2017-10-23T17:50:00.219Z,73.20
2017-10-23T17:55:02.909Z,73.30
2017-10-23T18:00:05.521Z,73.50
2017-10-23T18:05:11.716Z,73.90
2017-10-23T18:10:14.557Z,74.10
2017-10-23T18:15:17.150Z,74.40
2017-10-23T18:20:20.647Z,74.60
2017-10-23T18:25:23.315Z,74.50
2017-10-23T18:30:26.036Z,74.70
2017-10-23T18:35:28.773Z,74.80
2017-10-23T18:40:31.467Z,74.80
2017-10-23T18:45:34.129Z,74.90
2017-10-23T18:50:36.826Z,74.90
2017-10-23T18:55:39.494Z,75.10
2017-10-23T19:00:42.210Z,75.00
2017-10-23T19:05:44.952Z,74.90
2017-10-23T19:10:47.582Z,75.40
2017-10-23T19:15:50.347Z,75.10
2017-10-23T19:20:53.028Z,76.20
2017-10-23T19:25:55.811Z,76.40
2017-10-23T19:30:58.538Z,76.50
2017-10-23T19:36:01.325Z,76.50
2017-10-23T19:41:04.760Z,76.70
2017-10-23T19:46:07.405Z,76.70
2017-10-23T19:51:10.091Z,76.80
2017-10-23T19:56:13.700Z,76.90
2017-10-23T20:01:16.356Z,76.70
2017-10-23T20:06:18.937Z,77.00
2017-10-23T20:11:21.583Z,77.00
2017-10-23T20:16:24.205Z,77.20
2017-10-23T20:21:26.900Z,77.40
2017-10-23T20:26:29.457Z,77.00
2017-10-23T20:31:32.113Z,77.00
2017-10-23T20:41:59.121Z,77.20
2017-10-23T20:47:01.696Z,77.10
2017-10-23T20:52:05.078Z,77.50
2017-10-23T20:57:07.678Z,77.50
2017-10-23T21:02:10.236Z,77.40
2017-10-23T21:40:03.740Z,77.80
2017-10-23T22:50:47.995Z,78.20
2017-10-23T22:55:50.736Z,78.30
2017-10-23T23:00:53.692Z,78.40
2017-10-23T23:05:56.247Z,78.30
2017-10-23T23:10:59.584Z,78.10
2017-10-23T23:16:02.228Z,78.00
2017-10-23T23:21:04.865Z,78.60
2017-10-23T23:26:07.428Z,78.70
2017-10-23T23:31:09.995Z,78.60
2017-10-23T23:36:12.591Z,78.30
2017-10-23T23:41:15.169Z,78.60
2017-10-23T23:46:17.773Z,78.50
2017-10-23T23:51:21.114Z,78.60
2017-10-23T23:56:23.691Z,78.60
